sensor_id;sensor_type;location;lat;lon;timestamp;pressure;altitude;pressure_sealevel;temperature;humidity
39949;BME280;29070;48.102;-1.652;2023-05-14T00:00:54;101998.47;;;11.84;75.12
39949;BME280;29070;48.102;-1.652;2023-05-14T00:05:54;101993.41;;;11.74;75.50
39949;BME280;29070;48.102;-1.652;2023-05-14T00:10:54;101979.63;;;11.72;75.39
39949;BME280;29070;48.102;-1.652;2023-05-14T00:15:55;101972.41;;;11.66;75.60
39949;BME280;29070;48.102;-1.652;2023-05-14T00:20:56;101965.97;;;11.69;75.54
39949;BME280;29070;48.102;-1.652;2023-05-14T00:25:56;101962.53;;;11.68;75.86
39949;BME280;29070;48.102;-1.652;2023-05-14T00:30:56;101962.88;;;11.65;76.14
39949;BME280;29070;48.102;-1.652;2023-05-14T00:35:57;101959.28;;;11.58;76.04
39949;BME280;29070;48.102;-1.652;2023-05-14T00:40:57;101956.84;;;11.56;76.13
39949;BME280;29070;48.102;-1.652;2023-05-14T00:45:58;101954.06;;;11.50;76.63
39949;BME280;29070;48.102;-1.652;2023-05-14T00:50:59;101950.78;;;11.48;76.57
39949;BME280;29070;48.102;-1.652;2023-05-14T00:55:59;101952.28;;;11.50;76.68
39949;BME280;29070;48.102;-1.652;2023-05-14T01:01:00;101958.16;;;11.52;76.58
39949;BME280;29070;48.102;-1.652;2023-05-14T01:06:32;101949.16;;;11.47;77.07
39949;BME280;29070;48.102;-1.652;2023-05-14T01:11:51;101951.59;;;11.48;77.46
39949;BME280;29070;48.102;-1.652;2023-05-14T01:16:57;101943.84;;;11.55;77.30
39949;BME280;29070;48.102;-1.652;2023-05-14T01:21:57;101945.81;;;11.61;77.65
39949;BME280;29070;48.102;-1.652;2023-05-14T01:27:05;101941.19;;;11.63;77.83
39949;BME280;29070;48.102;-1.652;2023-05-14T01:32:07;101947.25;;;11.72;77.77
39949;BME280;29070;48.102;-1.652;2023-05-14T01:37:09;101941.97;;;11.72;78.43
39949;BME280;29070;48.102;-1.652;2023-05-14T01:42:11;101942.16;;;11.70;78.40
39949;BME280;29070;48.102;-1.652;2023-05-14T01:47:12;101943.09;;;11.77;78.54
39949;BME280;29070;48.102;-1.652;2023-05-14T01:52:12;101936.81;;;11.78;78.75
39949;BME280;29070;48.102;-1.652;2023-05-14T01:57:12;101922.34;;;11.82;78.86
39949;BME280;29070;48.102;-1.652;2023-05-14T02:02:13;101924.44;;;11.87;78.95
39949;BME280;29070;48.102;-1.652;2023-05-14T02:07:13;101931.53;;;11.95;79.00
39949;BME280;29070;48.102;-1.652;2023-05-14T02:12:13;101923.09;;;11.99;78.88
39949;BME280;29070;48.102;-1.652;2023-05-14T02:17:14;101923.56;;;12.03;79.17
39949;BME280;29070;48.102;-1.652;2023-05-14T02:22:16;101923.69;;;12.10;79.21
39949;BME280;29070;48.102;-1.652;2023-05-14T02:27:17;101925.81;;;12.14;79.37
39949;BME280;29070;48.102;-1.652;2023-05-14T02:32:17;101908.03;;;12.16;79.33
39949;BME280;29070;48.102;-1.652;2023-05-14T02:37:18;101904.38;;;12.17;79.75
39949;BME280;29070;48.102;-1.652;2023-05-14T02:42:18;101913.13;;;12.18;79.86
39949;BME280;29070;48.102;-1.652;2023-05-14T02:47:18;101907.47;;;12.21;79.83
39949;BME280;29070;48.102;-1.652;2023-05-14T02:52:19;101905.78;;;12.28;79.67
39949;BME280;29070;48.102;-1.652;2023-05-14T02:57:19;101899.34;;;12.31;79.73
39949;BME280;29070;48.102;-1.652;2023-05-14T03:02:20;101898.72;;;12.29;79.68
39949;BME280;29070;48.102;-1.652;2023-05-14T03:07:20;101904.78;;;12.29;79.69
39949;BME280;29070;48.102;-1.652;2023-05-14T03:12:21;101891.47;;;12.31;79.70
39949;BME280;29070;48.102;-1.652;2023-05-14T03:17:21;101893.72;;;12.34;79.74
39949;BME280;29070;48.102;-1.652;2023-05-14T03:22:22;101890.09;;;12.35;79.65
39949;BME280;29070;48.102;-1.652;2023-05-14T03:27:22;101890.91;;;12.35;79.74
39949;BME280;29070;48.102;-1.652;2023-05-14T03:32:22;101888.28;;;12.35;79.79
39949;BME280;29070;48.102;-1.652;2023-05-14T03:37:23;101886.09;;;12.39;79.69
39949;BME280;29070;48.102;-1.652;2023-05-14T03:42:23;101878.22;;;12.39;79.59
39949;BME280;29070;48.102;-1.652;2023-05-14T03:47:23;101876.03;;;12.43;79.63
39949;BME280;29070;48.102;-1.652;2023-05-14T03:52:24;101876.88;;;12.43;79.75
39949;BME280;29070;48.102;-1.652;2023-05-14T03:57:24;101873.22;;;12.44;79.77
39949;BME280;29070;48.102;-1.652;2023-05-14T04:02:25;101868.78;;;12.45;79.82
39949;BME280;29070;48.102;-1.652;2023-05-14T04:07:25;101865.78;;;12.48;79.74
39949;BME280;29070;48.102;-1.652;2023-05-14T04:12:25;101866.41;;;12.50;79.97
39949;BME280;29070;48.102;-1.652;2023-05-14T04:17:26;101873.81;;;12.54;79.99
39949;BME280;29070;48.102;-1.652;2023-05-14T04:22:26;101879.06;;;12.54;79.83
39949;BME280;29070;48.102;-1.652;2023-05-14T04:27:27;101873.00;;;12.54;79.93
39949;BME280;29070;48.102;-1.652;2023-05-14T04:32:27;101873.44;;;12.57;79.86
39949;BME280;29070;48.102;-1.652;2023-05-14T04:37:29;101879.19;;;12.61;80.04
39949;BME280;29070;48.102;-1.652;2023-05-14T04:42:30;101874.72;;;12.62;80.18
39949;BME280;29070;48.102;-1.652;2023-05-14T04:47:31;101876.81;;;12.66;80.09
39949;BME280;29070;48.102;-1.652;2023-05-14T04:52:31;101873.53;;;12.64;80.14
39949;BME280;29070;48.102;-1.652;2023-05-14T04:57:31;101875.16;;;12.65;80.13
39949;BME280;29070;48.102;-1.652;2023-05-14T05:02:32;101881.34;;;12.72;79.90
39949;BME280;29070;48.102;-1.652;2023-05-14T05:07:34;101874.25;;;12.73;80.05
39949;BME280;29070;48.102;-1.652;2023-05-14T05:12:34;101873.91;;;12.76;80.19
39949;BME280;29070;48.102;-1.652;2023-05-14T05:17:34;101870.66;;;12.74;80.15
39949;BME280;29070;48.102;-1.652;2023-05-14T05:22:36;101875.81;;;12.82;80.21
39949;BME280;29070;48.102;-1.652;2023-05-14T05:27:36;101869.38;;;12.85;80.18
39949;BME280;29070;48.102;-1.652;2023-05-14T05:32:36;101878.72;;;12.87;80.18
39949;BME280;29070;48.102;-1.652;2023-05-14T05:37:37;101877.75;;;12.88;80.27
39949;BME280;29070;48.102;-1.652;2023-05-14T05:42:37;101872.56;;;12.95;80.08
39949;BME280;29070;48.102;-1.652;2023-05-14T05:47:37;101885.28;;;12.91;80.24
39949;BME280;29070;48.102;-1.652;2023-05-14T05:52:38;101897.81;;;13.04;80.19
39949;BME280;29070;48.102;-1.652;2023-05-14T05:57:38;101899.63;;;13.04;80.26
39949;BME280;29070;48.102;-1.652;2023-05-14T06:02:40;101895.91;;;13.13;80.26
39949;BME280;29070;48.102;-1.652;2023-05-14T06:07:40;101919.91;;;13.18;80.21
39949;BME280;29070;48.102;-1.652;2023-05-14T06:12:41;101911.16;;;13.18;80.20
39949;BME280;29070;48.102;-1.652;2023-05-14T06:17:41;101916.88;;;13.21;80.19
39949;BME280;29070;48.102;-1.652;2023-05-14T06:22:41;101915.28;;;13.20;79.94
39949;BME280;29070;48.102;-1.652;2023-05-14T06:27:42;101908.09;;;13.29;80.13
39949;BME280;29070;48.102;-1.652;2023-05-14T06:32:43;101905.38;;;13.37;80.07
39949;BME280;29070;48.102;-1.652;2023-05-14T06:37:44;101911.97;;;13.48;80.00
39949;BME280;29070;48.102;-1.652;2023-05-14T06:42:44;101918.25;;;13.62;80.05
39949;BME280;29070;48.102;-1.652;2023-05-14T06:47:44;101907.13;;;13.66;79.92
39949;BME280;29070;48.102;-1.652;2023-05-14T06:52:45;101904.13;;;13.69;79.72
39949;BME280;29070;48.102;-1.652;2023-05-14T06:57:45;101907.00;;;13.75;79.52
39949;BME280;29070;48.102;-1.652;2023-05-14T07:02:46;101913.53;;;13.79;79.47
39949;BME280;29070;48.102;-1.652;2023-05-14T07:07:46;101910.00;;;13.86;79.50
39949;BME280;29070;48.102;-1.652;2023-05-14T07:12:47;101906.22;;;13.96;79.40
39949;BME280;29070;48.102;-1.652;2023-05-14T07:17:48;101910.63;;;14.10;79.39
39949;BME280;29070;48.102;-1.652;2023-05-14T07:22:49;101902.38;;;14.20;79.27
39949;BME280;29070;48.102;-1.652;2023-05-14T07:27:50;101904.28;;;14.26;79.11
39949;BME280;29070;48.102;-1.652;2023-05-14T07:32:50;101904.53;;;14.31;78.87
39949;BME280;29070;48.102;-1.652;2023-05-14T07:37:51;101900.34;;;14.43;78.82
39949;BME280;29070;48.102;-1.652;2023-05-14T07:42:51;101911.09;;;14.63;78.71
39949;BME280;29070;48.102;-1.652;2023-05-14T07:47:52;101909.88;;;14.66;78.61
39949;BME280;29070;48.102;-1.652;2023-05-14T07:52:52;101913.88;;;14.83;78.30
39949;BME280;29070;48.102;-1.652;2023-05-14T07:57:52;101923.66;;;14.90;77.88
39949;BME280;29070;48.102;-1.652;2023-05-14T08:02:54;101931.63;;;14.96;77.65
39949;BME280;29070;48.102;-1.652;2023-05-14T08:07:54;101934.16;;;15.11;77.56
39949;BME280;29070;48.102;-1.652;2023-05-14T08:12:54;101928.16;;;15.31;77.39
39949;BME280;29070;48.102;-1.652;2023-05-14T08:17:55;101931.44;;;15.33;76.98
39949;BME280;29070;48.102;-1.652;2023-05-14T08:22:56;101925.56;;;15.44;76.93
39949;BME280;29070;48.102;-1.652;2023-05-14T08:27:57;101923.41;;;15.68;76.79
39949;BME280;29070;48.102;-1.652;2023-05-14T08:32:58;101911.31;;;16.07;76.80
39949;BME280;29070;48.102;-1.652;2023-05-14T08:37:59;101909.91;;;16.37;76.20
39949;BME280;29070;48.102;-1.652;2023-05-14T08:42:59;101912.13;;;16.54;75.63
39949;BME280;29070;48.102;-1.652;2023-05-14T08:48:02;101906.22;;;16.65;75.03
39949;BME280;29070;48.102;-1.652;2023-05-14T08:53:07;101903.94;;;16.75;74.40
39949;BME280;29070;48.102;-1.652;2023-05-14T08:58:08;101909.47;;;16.87;74.26
39949;BME280;29070;48.102;-1.652;2023-05-14T09:03:08;101904.16;;;16.87;73.74
39949;BME280;29070;48.102;-1.652;2023-05-14T09:08:09;101909.19;;;17.15;73.82
39949;BME280;29070;48.102;-1.652;2023-05-14T09:13:09;101910.09;;;17.41;73.47
39949;BME280;29070;48.102;-1.652;2023-05-14T09:18:10;101924.53;;;17.52;72.80
39949;BME280;29070;48.102;-1.652;2023-05-14T09:23:10;101914.72;;;17.59;72.21
39949;BME280;29070;48.102;-1.652;2023-05-14T09:28:11;101909.41;;;17.59;71.65
39949;BME280;29070;48.102;-1.652;2023-05-14T09:33:11;101903.16;;;17.79;71.41
39949;BME280;29070;48.102;-1.652;2023-05-14T09:38:12;101906.06;;;17.70;70.71
39949;BME280;29070;48.102;-1.652;2023-05-14T09:43:12;101913.81;;;17.72;70.53
39949;BME280;29070;48.102;-1.652;2023-05-14T09:48:13;101910.72;;;18.14;70.89
39949;BME280;29070;48.102;-1.652;2023-05-14T09:53:13;101904.53;;;18.20;69.62
39949;BME280;29070;48.102;-1.652;2023-05-14T09:58:13;101904.66;;;18.57;70.44
39949;BME280;29070;48.102;-1.652;2023-05-14T10:03:14;101903.44;;;18.96;69.30
39949;BME280;29070;48.102;-1.652;2023-05-14T10:08:23;101898.91;;;19.34;68.49
39949;BME280;29070;48.102;-1.652;2023-05-14T10:13:35;101887.78;;;19.86;67.42
39949;BME280;29070;48.102;-1.652;2023-05-14T10:18:40;101891.72;;;19.95;66.68
39949;BME280;29070;48.102;-1.652;2023-05-14T10:23:41;101887.06;;;19.78;66.10
39949;BME280;29070;48.102;-1.652;2023-05-14T10:28:42;101891.13;;;19.93;65.88
39949;BME280;29070;48.102;-1.652;2023-05-14T10:33:46;101882.59;;;20.26;65.38
39949;BME280;29070;48.102;-1.652;2023-05-14T10:38:54;101875.63;;;20.84;64.05
39949;BME280;29070;48.102;-1.652;2023-05-14T10:43:56;101886.19;;;20.67;63.84
39949;BME280;29070;48.102;-1.652;2023-05-14T10:48:56;101876.91;;;20.82;63.83
39949;BME280;29070;48.102;-1.652;2023-05-14T10:53:59;101867.16;;;20.87;63.25
39949;BME280;29070;48.102;-1.652;2023-05-14T10:59:01;101873.69;;;21.49;62.10
39949;BME280;29070;48.102;-1.652;2023-05-14T11:04:02;101872.91;;;21.37;60.85
39949;BME280;29070;48.102;-1.652;2023-05-14T11:09:03;101860.34;;;21.37;61.28
39949;BME280;29070;48.102;-1.652;2023-05-14T11:14:04;101869.09;;;21.61;60.59
39949;BME280;29070;48.102;-1.652;2023-05-14T11:19:05;101857.28;;;21.74;60.35
39949;BME280;29070;48.102;-1.652;2023-05-14T11:24:05;101852.59;;;22.15;59.79
39949;BME280;29070;48.102;-1.652;2023-05-14T11:29:06;101855.63;;;22.58;59.36
39949;BME280;29070;48.102;-1.652;2023-05-14T11:34:06;101859.97;;;22.64;58.29
39949;BME280;29070;48.102;-1.652;2023-05-14T11:39:07;101855.13;;;22.61;57.42
39949;BME280;29070;48.102;-1.652;2023-05-14T11:44:09;101842.16;;;22.75;57.30
39949;BME280;29070;48.102;-1.652;2023-05-14T11:49:09;101854.81;;;22.79;56.85
39949;BME280;29070;48.102;-1.652;2023-05-14T11:54:12;101835.81;;;23.03;56.25
39949;BME280;29070;48.102;-1.652;2023-05-14T11:59:13;101850.38;;;23.34;55.83
39949;BME280;29070;48.102;-1.652;2023-05-14T12:04:13;101842.31;;;23.34;55.71
39949;BME280;29070;48.102;-1.652;2023-05-14T12:09:20;101838.66;;;23.46;54.04
39949;BME280;29070;48.102;-1.652;2023-05-14T12:14:22;101836.88;;;23.56;54.26
39949;BME280;29070;48.102;-1.652;2023-05-14T12:19:23;101840.28;;;23.19;53.70
39949;BME280;29070;48.102;-1.652;2023-05-14T12:24:24;101836.66;;;23.31;53.39
39949;BME280;29070;48.102;-1.652;2023-05-14T12:29:25;101831.09;;;23.10;53.47
39949;BME280;29070;48.102;-1.652;2023-05-14T12:34:25;101833.50;;;23.39;52.96
39949;BME280;29070;48.102;-1.652;2023-05-14T12:39:25;101824.44;;;23.40;51.90
39949;BME280;29070;48.102;-1.652;2023-05-14T12:44:26;101818.56;;;23.43;51.85
39949;BME280;29070;48.102;-1.652;2023-05-14T12:49:26;101812.72;;;23.51;52.26
39949;BME280;29070;48.102;-1.652;2023-05-14T12:54:27;101812.44;;;23.80;51.77
39949;BME280;29070;48.102;-1.652;2023-05-14T12:59:27;101807.53;;;24.04;51.38
39949;BME280;29070;48.102;-1.652;2023-05-14T13:04:27;101787.28;;;24.39;51.30
39949;BME280;29070;48.102;-1.652;2023-05-14T13:09:28;101789.53;;;24.05;50.67
39949;BME280;29070;48.102;-1.652;2023-05-14T13:14:28;101796.03;;;24.14;51.02
39949;BME280;29070;48.102;-1.652;2023-05-14T13:19:28;101791.13;;;24.53;50.91
39949;BME280;29070;48.102;-1.652;2023-05-14T13:24:29;101778.56;;;24.64;49.47
39949;BME280;29070;48.102;-1.652;2023-05-14T13:29:29;101776.41;;;24.61;49.74
39949;BME280;29070;48.102;-1.652;2023-05-14T13:34:30;101766.53;;;24.87;49.73
39949;BME280;29070;48.102;-1.652;2023-05-14T13:39:30;101764.69;;;25.03;49.58
39949;BME280;29070;48.102;-1.652;2023-05-14T13:44:31;101767.66;;;25.17;49.06
39949;BME280;29070;48.102;-1.652;2023-05-14T13:49:31;101763.91;;;25.08;48.54
39949;BME280;29070;48.102;-1.652;2023-05-14T13:54:31;101758.72;;;24.65;47.61
39949;BME280;29070;48.102;-1.652;2023-05-14T13:59:34;101746.09;;;24.71;48.47
39949;BME280;29070;48.102;-1.652;2023-05-14T14:04:34;101754.47;;;25.00;48.29
39949;BME280;29070;48.102;-1.652;2023-05-14T14:09:34;101752.84;;;24.84;47.69
39949;BME280;29070;48.102;-1.652;2023-05-14T14:14:35;101749.06;;;24.74;47.00
39949;BME280;29070;48.102;-1.652;2023-05-14T14:19:36;101747.97;;;24.70;46.94
39949;BME280;29070;48.102;-1.652;2023-05-14T14:24:36;101741.22;;;24.63;46.43
39949;BME280;29070;48.102;-1.652;2023-05-14T14:29:37;101736.66;;;24.53;46.26
39949;BME280;29070;48.102;-1.652;2023-05-14T14:34:37;101730.78;;;24.61;45.97
39949;BME280;29070;48.102;-1.652;2023-05-14T14:39:37;101732.41;;;24.72;45.53
39949;BME280;29070;48.102;-1.652;2023-05-14T14:44:38;101728.66;;;24.73;45.43
39949;BME280;29070;48.102;-1.652;2023-05-14T14:49:38;101723.16;;;24.43;45.49
39949;BME280;29070;48.102;-1.652;2023-05-14T14:54:39;101722.72;;;24.56;45.43
39949;BME280;29070;48.102;-1.652;2023-05-14T14:59:39;101715.72;;;24.55;45.44
39949;BME280;29070;48.102;-1.652;2023-05-14T15:04:39;101720.56;;;24.53;45.86
39949;BME280;29070;48.102;-1.652;2023-05-14T15:09:40;101728.81;;;24.46;45.91
39949;BME280;29070;48.102;-1.652;2023-05-14T15:14:40;101719.94;;;24.41;46.12
39949;BME280;29070;48.102;-1.652;2023-05-14T15:19:41;101724.88;;;24.54;45.82
39949;BME280;29070;48.102;-1.652;2023-05-14T15:24:41;101718.84;;;24.31;45.70
39949;BME280;29070;48.102;-1.652;2023-05-14T15:29:41;101724.75;;;24.33;46.04
39949;BME280;29070;48.102;-1.652;2023-05-14T15:34:42;101711.88;;;24.25;46.31
39949;BME280;29070;48.102;-1.652;2023-05-14T15:39:42;101708.31;;;24.14;46.31
39949;BME280;29070;48.102;-1.652;2023-05-14T15:44:42;101703.19;;;24.03;45.83
39949;BME280;29070;48.102;-1.652;2023-05-14T15:49:43;101706.84;;;23.86;46.15
39949;BME280;29070;48.102;-1.652;2023-05-14T15:54:46;101689.66;;;23.82;45.97
39949;BME280;29070;48.102;-1.652;2023-05-14T15:59:47;101701.25;;;23.98;45.54
39949;BME280;29070;48.102;-1.652;2023-05-14T16:04:48;101695.03;;;23.87;45.20
39949;BME280;29070;48.102;-1.652;2023-05-14T16:09:48;101698.56;;;23.55;45.22
39949;BME280;29070;48.102;-1.652;2023-05-14T16:14:49;101687.44;;;23.31;45.11
39949;BME280;29070;48.102;-1.652;2023-05-14T16:19:49;101679.22;;;23.43;45.59
39949;BME280;29070;48.102;-1.652;2023-05-14T16:24:49;101680.03;;;23.44;45.64
39949;BME280;29070;48.102;-1.652;2023-05-14T16:29:50;101683.03;;;23.52;46.05
39949;BME280;29070;48.102;-1.652;2023-05-14T16:34:50;101673.34;;;23.46;46.22
39949;BME280;29070;48.102;-1.652;2023-05-14T16:39:50;101675.13;;;23.35;46.15
39949;BME280;29070;48.102;-1.652;2023-05-14T16:44:51;101681.53;;;22.97;46.49
39949;BME280;29070;48.102;-1.652;2023-05-14T16:49:51;101681.75;;;22.63;46.90
39949;BME280;29070;48.102;-1.652;2023-05-14T16:54:51;101683.06;;;22.16;47.49
39949;BME280;29070;48.102;-1.652;2023-05-14T16:59:52;101675.03;;;21.94;47.65
39949;BME280;29070;48.102;-1.652;2023-05-14T17:04:52;101678.88;;;21.81;48.03
39949;BME280;29070;48.102;-1.652;2023-05-14T17:09:54;101683.56;;;21.52;48.51
39949;BME280;29070;48.102;-1.652;2023-05-14T17:14:54;101670.19;;;21.52;49.18
39949;BME280;29070;48.102;-1.652;2023-05-14T17:19:55;101674.47;;;21.53;49.23
39949;BME280;29070;48.102;-1.652;2023-05-14T17:24:55;101685.88;;;21.65;49.60
39949;BME280;29070;48.102;-1.652;2023-05-14T17:29:55;101689.63;;;21.64;50.14
39949;BME280;29070;48.102;-1.652;2023-05-14T17:34:56;101688.38;;;21.55;50.57
39949;BME280;29070;48.102;-1.652;2023-05-14T17:39:56;101692.94;;;21.55;50.56
39949;BME280;29070;48.102;-1.652;2023-05-14T17:44:56;101692.03;;;21.49;51.17
39949;BME280;29070;48.102;-1.652;2023-05-14T17:49:57;101685.16;;;21.36;50.83
39949;BME280;29070;48.102;-1.652;2023-05-14T17:54:57;101685.00;;;21.09;50.98
39949;BME280;29070;48.102;-1.652;2023-05-14T17:59:58;101698.38;;;20.80;50.52
39949;BME280;29070;48.102;-1.652;2023-05-14T18:05:01;101685.22;;;20.62;50.87
39949;BME280;29070;48.102;-1.652;2023-05-14T18:10:06;101696.50;;;20.40;51.29
39949;BME280;29070;48.102;-1.652;2023-05-14T18:15:11;101697.22;;;20.35;51.84
39949;BME280;29070;48.102;-1.652;2023-05-14T18:20:15;101691.91;;;20.24;51.97
39949;BME280;29070;48.102;-1.652;2023-05-14T18:25:20;101691.13;;;20.11;52.28
39949;BME280;29070;48.102;-1.652;2023-05-14T18:30:24;101691.88;;;19.95;52.51
39949;BME280;29070;48.102;-1.652;2023-05-14T18:35:29;101704.00;;;19.67;52.65
39949;BME280;29070;48.102;-1.652;2023-05-14T18:40:33;101698.78;;;19.49;53.27
39949;BME280;29070;48.102;-1.652;2023-05-14T18:45:35;101705.69;;;19.26;53.70
39949;BME280;29070;48.102;-1.652;2023-05-14T18:50:35;101705.69;;;19.26;53.59
39949;BME280;29070;48.102;-1.652;2023-05-14T18:55:36;101707.28;;;19.15;53.70
39949;BME280;29070;48.102;-1.652;2023-05-14T19:00:36;101708.53;;;19.01;53.93
39949;BME280;29070;48.102;-1.652;2023-05-14T19:05:37;101717.41;;;18.95;54.24
39949;BME280;29070;48.102;-1.652;2023-05-14T19:10:37;101705.97;;;18.76;54.50
39949;BME280;29070;48.102;-1.652;2023-05-14T19:15:37;101706.31;;;18.67;55.03
39949;BME280;29070;48.102;-1.652;2023-05-14T19:20:38;101713.28;;;18.50;55.28
39949;BME280;29070;48.102;-1.652;2023-05-14T19:25:38;101719.94;;;18.41;55.51
39949;BME280;29070;48.102;-1.652;2023-05-14T19:30:39;101717.25;;;18.22;56.09
39949;BME280;29070;48.102;-1.652;2023-05-14T19:35:40;101717.69;;;18.01;56.32
39949;BME280;29070;48.102;-1.652;2023-05-14T19:40:40;101721.97;;;17.77;56.43
39949;BME280;29070;48.102;-1.652;2023-05-14T19:45:41;101725.63;;;17.57;56.67
39949;BME280;29070;48.102;-1.652;2023-05-14T19:50:41;101736.56;;;17.42;57.26
39949;BME280;29070;48.102;-1.652;2023-05-14T19:55:42;101727.06;;;17.28;57.75
39949;BME280;29070;48.102;-1.652;2023-05-14T20:00:42;101732.44;;;17.14;58.15
39949;BME280;29070;48.102;-1.652;2023-05-14T20:05:43;101735.81;;;16.96;58.46
39949;BME280;29070;48.102;-1.652;2023-05-14T20:10:48;101748.97;;;16.85;58.79
39949;BME280;29070;48.102;-1.652;2023-05-14T20:15:48;101748.38;;;16.69;59.41
39949;BME280;29070;48.102;-1.652;2023-05-14T20:20:49;101759.84;;;16.50;60.08
39949;BME280;29070;48.102;-1.652;2023-05-14T20:25:50;101759.28;;;16.34;60.44
39949;BME280;29070;48.102;-1.652;2023-05-14T20:30:50;101755.63;;;16.22;60.74
39949;BME280;29070;48.102;-1.652;2023-05-14T20:35:51;101760.56;;;16.12;60.87
39949;BME280;29070;48.102;-1.652;2023-05-14T20:40:52;101768.94;;;15.95;61.35
39949;BME280;29070;48.102;-1.652;2023-05-14T20:45:52;101773.59;;;15.80;61.79
39949;BME280;29070;48.102;-1.652;2023-05-14T20:50:53;101780.28;;;15.69;61.75
39949;BME280;29070;48.102;-1.652;2023-05-14T20:55:54;101784.94;;;15.54;61.87
39949;BME280;29070;48.102;-1.652;2023-05-14T21:00:54;101791.41;;;15.24;62.34
39949;BME280;29070;48.102;-1.652;2023-05-14T21:05:55;101782.84;;;15.16;62.42
39949;BME280;29070;48.102;-1.652;2023-05-14T21:10:55;101791.78;;;15.08;62.85
39949;BME280;29070;48.102;-1.652;2023-05-14T21:15:56;101793.59;;;15.01;62.80
39949;BME280;29070;48.102;-1.652;2023-05-14T21:20:57;101792.28;;;14.83;63.27
39949;BME280;29070;48.102;-1.652;2023-05-14T21:25:57;101786.75;;;14.78;63.43
39949;BME280;29070;48.102;-1.652;2023-05-14T21:30:57;101787.91;;;14.62;63.47
39949;BME280;29070;48.102;-1.652;2023-05-14T21:35:58;101781.31;;;14.52;63.64
39949;BME280;29070;48.102;-1.652;2023-05-14T21:40:58;101779.84;;;14.42;63.77
39949;BME280;29070;48.102;-1.652;2023-05-14T21:45:59;101779.13;;;14.27;64.04
39949;BME280;29070;48.102;-1.652;2023-05-14T21:50:59;101784.56;;;14.19;64.16
39949;BME280;29070;48.102;-1.652;2023-05-14T21:55:59;101782.69;;;14.13;64.25
39949;BME280;29070;48.102;-1.652;2023-05-14T22:01:00;101775.72;;;14.05;64.41
39949;BME280;29070;48.102;-1.652;2023-05-14T22:06:00;101764.88;;;13.93;64.51
39949;BME280;29070;48.102;-1.652;2023-05-14T22:11:01;101765.03;;;13.85;64.86
39949;BME280;29070;48.102;-1.652;2023-05-14T22:16:01;101763.78;;;13.81;65.03
39949;BME280;29070;48.102;-1.652;2023-05-14T22:21:02;101766.91;;;13.69;65.00
39949;BME280;29070;48.102;-1.652;2023-05-14T22:26:02;101764.03;;;13.64;65.49
39949;BME280;29070;48.102;-1.652;2023-05-14T22:31:03;101767.06;;;13.40;65.96
39949;BME280;29070;48.102;-1.652;2023-05-14T22:36:04;101761.56;;;13.41;66.08
39949;BME280;29070;48.102;-1.652;2023-05-14T22:41:06;101755.50;;;13.41;66.17
39949;BME280;29070;48.102;-1.652;2023-05-14T22:46:06;101755.69;;;13.39;66.37
39949;BME280;29070;48.102;-1.652;2023-05-14T22:51:06;101759.06;;;13.33;66.47
39949;BME280;29070;48.102;-1.652;2023-05-14T22:56:07;101764.59;;;13.38;66.80
39949;BME280;29070;48.102;-1.652;2023-05-14T23:01:07;101762.97;;;13.37;66.84
39949;BME280;29070;48.102;-1.652;2023-05-14T23:06:07;101752.31;;;13.30;67.21
39949;BME280;29070;48.102;-1.652;2023-05-14T23:11:08;101749.44;;;13.25;67.20
39949;BME280;29070;48.102;-1.652;2023-05-14T23:16:08;101749.03;;;13.28;67.61
39949;BME280;29070;48.102;-1.652;2023-05-14T23:21:09;101741.44;;;13.33;67.67
39949;BME280;29070;48.102;-1.652;2023-05-14T23:26:10;101728.88;;;13.35;67.76
39949;BME280;29070;48.102;-1.652;2023-05-14T23:31:10;101739.47;;;13.42;67.73
39949;BME280;29070;48.102;-1.652;2023-05-14T23:36:11;101733.78;;;13.39;67.84
39949;BME280;29070;48.102;-1.652;2023-05-14T23:41:11;101731.38;;;13.44;67.90
39949;BME280;29070;48.102;-1.652;2023-05-14T23:46:12;101724.91;;;13.46;68.36
39949;BME280;29070;48.102;-1.652;2023-05-14T23:51:12;101719.63;;;13.46;68.40
39949;BME280;29070;48.102;-1.652;2023-05-14T23:56:12;101717.19;;;13.45;68.55
